createdAt,value
2022-11-30T00:00:44.583Z,101099.22
2022-11-30T00:03:47.642Z,101099.31
2022-11-30T00:06:50.325Z,101099.31
2022-11-30T00:09:53.124Z,101099.31
2022-11-30T00:12:55.731Z,101094.13
2022-11-30T00:16:01.688Z,101093.19
2022-11-30T00:19:04.341Z,101092.25
2022-11-30T00:22:07.074Z,101096.44
2022-11-30T00:25:10.205Z,101092.91
2022-11-30T00:28:12.885Z,101098.09
2022-11-30T00:31:17.014Z,101091.13
2022-11-30T00:34:19.769Z,101097.06
2022-11-30T00:37:22.822Z,101091.03
2022-11-30T00:40:25.560Z,101097.06
2022-11-30T00:43:28.926Z,101103.00
2022-11-30T00:46:31.739Z,101100.31
2022-11-30T00:49:35.850Z,101105.50
2022-11-30T00:52:38.489Z,101099.28
2022-11-30T00:55:41.169Z,101097.44
2022-11-30T00:58:43.996Z,101101.69
2022-11-30T01:01:46.628Z,101104.22
2022-11-30T01:04:49.631Z,101101.53
2022-11-30T01:07:52.828Z,101109.16
2022-11-30T01:10:57.933Z,101109.88
2022-11-30T01:14:01.092Z,101109.78
2022-11-30T01:17:03.843Z,101112.38
2022-11-30T01:20:08.245Z,101112.28
2022-11-30T01:23:11.525Z,101102.63
2022-11-30T01:26:15.209Z,101106.06
2022-11-30T01:29:17.841Z,101110.34
2022-11-30T01:32:21.786Z,101110.12
2022-11-30T01:35:24.423Z,101104.09
2022-11-30T01:38:31.221Z,101110.78
2022-11-30T01:41:34.004Z,101110.78
2022-11-30T01:44:54.365Z,101107.34
2022-11-30T01:47:57.859Z,101110.78
2022-11-30T01:51:00.560Z,101096.84
2022-11-30T01:54:05.842Z,101091.66
2022-11-30T01:57:21.423Z,101091.66
2022-11-30T02:00:27.165Z,101093.41
2022-11-30T02:04:25.450Z,101085.53
2022-11-30T02:07:31.450Z,101081.25
2022-11-30T02:10:36.409Z,101075.22
2022-11-30T02:13:55.586Z,101090.72
2022-11-30T02:17:20.004Z,101085.53
2022-11-30T02:20:31.587Z,101094.25
2022-11-30T02:23:40.821Z,101096.00
2022-11-30T02:27:22.885Z,101092.69
2022-11-30T02:30:25.900Z,101104.00
2022-11-30T02:33:30.997Z,101096.22
2022-11-30T02:36:33.691Z,101096.22
2022-11-30T02:39:36.405Z,101093.59
2022-11-30T02:42:39.558Z,101092.69
2022-11-30T02:45:49.272Z,101083.94
2022-11-30T02:49:07.701Z,101080.50
2022-11-30T02:52:11.178Z,101083.00
2022-11-30T02:55:17.247Z,101082.19
2022-11-30T02:58:20.004Z,101076.88
2022-11-30T03:01:22.879Z,101079.47
2022-11-30T03:04:25.544Z,101080.22
2022-11-30T03:07:31.512Z,101082.72
2022-11-30T03:10:34.247Z,101087.00
2022-11-30T03:13:36.844Z,101080.84
2022-11-30T03:16:39.593Z,101079.94
2022-11-30T03:19:42.323Z,101074.00
2022-11-30T03:22:45.026Z,101063.59
2022-11-30T03:25:47.886Z,101063.50
2022-11-30T03:28:50.560Z,101074.63
2022-11-30T03:31:53.444Z,101074.53
2022-11-30T03:34:56.091Z,101077.03
2022-11-30T03:37:58.777Z,101076.84
2022-11-30T03:41:10.804Z,101074.22
2022-11-30T03:44:13.459Z,101081.94
2022-11-30T03:47:16.170Z,101093.06
2022-11-30T03:50:22.162Z,101091.31
2022-11-30T03:53:25.781Z,101099.94
2022-11-30T03:56:28.774Z,101089.44
2022-11-30T03:59:31.520Z,101086.75
2022-11-30T04:02:34.240Z,101091.00
2022-11-30T04:05:36.963Z,101098.72
2022-11-30T04:08:40.447Z,101097.72
2022-11-30T04:11:46.298Z,101093.34
2022-11-30T04:14:49.078Z,101091.59
2022-11-30T04:17:51.953Z,101096.69
2022-11-30T04:20:57.399Z,101095.75
2022-11-30T04:24:00.090Z,101093.06
2022-11-30T04:27:02.683Z,101099.09
2022-11-30T04:30:06.242Z,101091.19
2022-11-30T04:33:09.007Z,101092.00
2022-11-30T04:36:19.862Z,101092.84
2022-11-30T04:39:22.919Z,101090.16
2022-11-30T04:42:25.484Z,101094.41
2022-11-30T04:45:32.477Z,101088.28
2022-11-30T04:48:37.878Z,101099.53
2022-11-30T04:51:43.663Z,101096.00
2022-11-30T04:54:49.576Z,101102.84
2022-11-30T04:57:52.642Z,101102.84
2022-11-30T05:00:55.702Z,101097.66
2022-11-30T05:04:00.440Z,101098.50
2022-11-30T05:07:03.127Z,101087.34
2022-11-30T05:10:07.557Z,101101.00
2022-11-30T05:13:10.423Z,101095.78
2022-11-30T05:16:13.897Z,101102.66
2022-11-30T05:19:16.769Z,101094.97
2022-11-30T05:22:19.563Z,101096.62
2022-11-30T05:25:22.223Z,101095.88
2022-11-30T05:28:24.941Z,101096.00
2022-11-30T05:31:27.776Z,101095.06
2022-11-30T05:34:30.500Z,101096.00
2022-11-30T05:37:33.212Z,101098.59
2022-11-30T05:40:35.889Z,101102.84
2022-11-30T05:43:38.575Z,101104.63
2022-11-30T05:46:41.366Z,101097.66
2022-11-30T05:49:44.438Z,101104.53
2022-11-30T05:52:47.099Z,101103.69
2022-11-30T05:55:49.847Z,101103.59
2022-11-30T05:58:55.530Z,101102.66
2022-11-30T06:01:58.372Z,101111.31
2022-11-30T06:05:01.887Z,101109.53
2022-11-30T06:08:04.681Z,101111.19
2022-11-30T06:11:07.461Z,101113.81
2022-11-30T06:14:10.125Z,101113.69
2022-11-30T06:17:12.802Z,101113.59
2022-11-30T06:20:15.464Z,101126.72
2022-11-30T06:23:18.103Z,101121.41
2022-11-30T06:26:24.011Z,101133.47
2022-11-30T06:29:26.626Z,101126.50
2022-11-30T06:32:29.293Z,101127.44
2022-11-30T06:35:32.014Z,101122.16
2022-11-30T06:38:34.827Z,101129.94
2022-11-30T06:41:37.480Z,101137.66
2022-11-30T06:44:40.111Z,101132.34
2022-11-30T06:47:42.775Z,101136.62
2022-11-30T06:50:49.836Z,101140.91
2022-11-30T06:53:55.805Z,101139.13
2022-11-30T06:56:58.506Z,101136.44
2022-11-30T07:00:01.955Z,101131.22
2022-11-30T07:03:06.022Z,101144.03
2022-11-30T07:06:11.155Z,101140.50
2022-11-30T07:09:14.338Z,101151.63
2022-11-30T07:12:17.323Z,101153.31
2022-11-30T07:15:20.007Z,101147.06
2022-11-30T07:18:24.764Z,101159.03
2022-11-30T07:21:31.484Z,101155.50
2022-11-30T07:24:52.726Z,101158.78
2022-11-30T07:27:56.277Z,101167.12
2022-11-30T07:30:59.047Z,101169.41
2022-11-30T07:34:09.365Z,101161.31
2022-11-30T07:37:12.127Z,101155.06
2022-11-30T07:40:14.892Z,101176.53
2022-11-30T07:43:17.893Z,101158.94
2022-11-30T07:46:20.707Z,101169.25
2022-11-30T07:49:23.406Z,101166.44
2022-11-30T07:52:27.841Z,101170.50
2022-11-30T07:55:31.368Z,101158.22
2022-11-30T07:58:34.583Z,101162.59
2022-11-30T08:01:37.553Z,101154.56
2022-11-30T08:04:41.861Z,101146.53
2022-11-30T08:07:51.593Z,101162.19
2022-11-30T08:10:57.143Z,101151.56
2022-11-30T08:14:00.245Z,101151.28
2022-11-30T08:17:02.941Z,101163.16
2022-11-30T08:20:08.303Z,101162.00
2022-11-30T08:23:10.992Z,101169.50
2022-11-30T08:26:19.067Z,101164.94
2022-11-30T08:29:21.783Z,101167.00
2022-11-30T08:32:24.424Z,101171.81
2022-11-30T08:35:27.091Z,101169.09
2022-11-30T08:38:29.867Z,101169.00
2022-11-30T08:41:36.416Z,101171.19
2022-11-30T08:44:39.557Z,101172.84
2022-11-30T08:47:42.246Z,101176.00
2022-11-30T08:50:47.908Z,101177.66
2022-11-30T08:53:53.842Z,101163.03
2022-11-30T08:56:59.454Z,101172.44
2022-11-30T09:00:02.456Z,101169.75
2022-11-30T09:03:05.174Z,101165.34
2022-11-30T09:06:11.204Z,101169.53
2022-11-30T09:09:19.688Z,101167.53
2022-11-30T09:12:23.011Z,101162.84
2022-11-30T09:15:25.826Z,101158.03
2022-11-30T09:18:29.204Z,101164.59
2022-11-30T09:21:38.127Z,101169.25
2022-11-30T09:24:41.725Z,101169.66
2022-11-30T09:27:44.348Z,101164.03
2022-11-30T09:30:47.347Z,101156.81
2022-11-30T09:33:50.348Z,101155.66
2022-11-30T09:36:53.111Z,101150.34
2022-11-30T09:39:55.779Z,101154.50
2022-11-30T09:43:32.665Z,101150.00
2022-11-30T09:46:57.019Z,101159.28
2022-11-30T09:50:04.725Z,101160.13
2022-11-30T09:53:15.380Z,101147.69
2022-11-30T09:56:33.324Z,101147.56
2022-11-30T09:59:38.263Z,101148.63
2022-11-30T10:02:41.537Z,101142.56
2022-11-30T10:05:52.046Z,101147.56
2022-11-30T10:09:27.619Z,101146.63
2022-11-30T10:12:38.316Z,101148.19
2022-11-30T10:15:52.182Z,101144.72
2022-11-30T10:19:06.530Z,101138.56
2022-11-30T10:22:46.342Z,101145.47
2022-11-30T10:25:54.843Z,101138.22
2022-11-30T10:29:04.976Z,101128.41
2022-11-30T10:32:36.122Z,101134.69
2022-11-30T10:35:44.857Z,101138.13
2022-11-30T10:38:51.044Z,101137.19
2022-11-30T10:42:15.250Z,101138.63
2022-11-30T10:45:22.378Z,101133.16
2022-11-30T10:48:47.905Z,101133.41
2022-11-30T10:51:54.955Z,101134.00
2022-11-30T10:55:04.230Z,101125.75
2022-11-30T10:58:16.267Z,101121.25
2022-11-30T11:01:49.509Z,101115.81
2022-11-30T11:05:08.986Z,101111.19
2022-11-30T11:08:20.158Z,101108.13
2022-11-30T11:11:32.965Z,101115.50
2022-11-30T11:14:38.193Z,101116.94
2022-11-30T11:17:41.327Z,101116.94
2022-11-30T11:20:44.243Z,101113.97
2022-11-30T11:23:48.057Z,101115.97
2022-11-30T11:26:54.861Z,101110.75
2022-11-30T11:30:08.305Z,101115.75
2022-11-30T11:33:14.110Z,101109.47
2022-11-30T11:36:25.725Z,101106.84
2022-11-30T11:39:29.845Z,101097.00
2022-11-30T11:42:41.404Z,101098.44
2022-11-30T11:45:51.887Z,101097.59
2022-11-30T11:49:18.224Z,101106.16
2022-11-30T11:52:22.855Z,101095.81
2022-11-30T11:55:25.489Z,101100.31
2022-11-30T11:58:36.165Z,101095.34
2022-11-30T12:02:33.316Z,101090.94
2022-11-30T12:05:49.659Z,101089.16
2022-11-30T12:08:56.500Z,101097.59
2022-11-30T12:11:59.139Z,101093.19
2022-11-30T12:15:03.690Z,101088.34
2022-11-30T12:18:24.339Z,101091.22
2022-11-30T12:22:00.170Z,101102.53
2022-11-30T12:25:27.122Z,101098.50
2022-11-30T12:29:17.811Z,101088.50
2022-11-30T12:32:48.439Z,101085.19
2022-11-30T12:36:27.410Z,101088.28
2022-11-30T12:40:05.578Z,101085.66
2022-11-30T12:43:17.325Z,101076.97
2022-11-30T12:46:48.959Z,101071.63
2022-11-30T12:50:30.121Z,101064.37
2022-11-30T12:53:43.453Z,101060.94
2022-11-30T12:56:50.507Z,101063.31
2022-11-30T13:00:12.730Z,101060.56
2022-11-30T13:03:42.961Z,101056.19
2022-11-30T13:06:56.161Z,101049.28
2022-11-30T13:10:00.405Z,101042.62
2022-11-30T13:13:04.694Z,101035.50
2022-11-30T13:16:09.013Z,101040.72
2022-11-30T13:19:44.802Z,101040.25
2022-11-30T13:22:58.123Z,101037.75
2022-11-30T13:26:18.005Z,101048.94
2022-11-30T13:29:39.520Z,101048.09
2022-11-30T13:32:57.797Z,101062.12
2022-11-30T13:36:30.940Z,101060.94
2022-11-30T13:39:51.241Z,101053.94
2022-11-30T13:42:55.281Z,101051.31
2022-11-30T13:46:19.019Z,101048.94
2022-11-30T13:49:35.978Z,101050.72
2022-11-30T13:53:00.854Z,101055.22
2022-11-30T13:56:19.772Z,101054.75
2022-11-30T13:59:25.489Z,101051.44
2022-11-30T14:02:42.133Z,101055.22
2022-11-30T14:05:48.722Z,101051.91
2022-11-30T14:08:51.465Z,101042.66
2022-11-30T14:11:54.421Z,101044.44
2022-11-30T14:14:57.533Z,101041.09
2022-11-30T14:18:03.503Z,101044.78
2022-11-30T14:21:33.592Z,101033.63
2022-11-30T14:24:36.412Z,101034.56
2022-11-30T14:27:39.231Z,101037.31
2022-11-30T14:30:43.375Z,101037.41
2022-11-30T14:33:58.209Z,101031.47
2022-11-30T14:37:12.935Z,101042.88
2022-11-30T14:40:19.061Z,101042.19
2022-11-30T14:43:22.338Z,101041.34
2022-11-30T14:46:27.762Z,101038.13
2022-11-30T14:49:31.365Z,101031.59
2022-11-30T14:52:37.862Z,101033.37
2022-11-30T14:55:47.043Z,101045.69
2022-11-30T14:58:55.906Z,101046.66
2022-11-30T15:02:02.228Z,101049.25
2022-11-30T15:05:13.207Z,101038.09
2022-11-30T15:08:17.457Z,101047.97
2022-11-30T15:11:21.970Z,101049.97
2022-11-30T15:14:24.768Z,101054.47
2022-11-30T15:17:28.350Z,101057.31
2022-11-30T15:20:40.174Z,101054.72
2022-11-30T15:23:47.978Z,101048.06
2022-11-30T15:27:10.930Z,101042.12
2022-11-30T15:30:16.017Z,101046.87
2022-11-30T15:33:20.484Z,101047.81
2022-11-30T15:36:33.149Z,101047.22
2022-11-30T15:39:37.608Z,101043.78
2022-11-30T15:42:40.759Z,101042.34
2022-11-30T15:45:52.781Z,101043.41
2022-11-30T15:49:16.420Z,101048.72
2022-11-30T15:52:28.210Z,101048.84
2022-11-30T15:55:47.685Z,101041.13
2022-11-30T15:59:20.412Z,101043.84
2022-11-30T16:02:35.519Z,101043.03
2022-11-30T16:05:39.886Z,101038.62
2022-11-30T16:08:47.004Z,101030.56
2022-11-30T16:11:57.383Z,101039.94
2022-11-30T16:15:00.023Z,101049.22
2022-11-30T16:18:08.760Z,101053.50
2022-11-30T16:21:13.606Z,101056.00
2022-11-30T16:24:17.005Z,101058.13
2022-11-30T16:27:20.347Z,101046.25
2022-11-30T16:30:24.033Z,101043.75
2022-11-30T16:33:30.127Z,101043.97
2022-11-30T16:36:36.764Z,101050.13
2022-11-30T16:39:39.400Z,101046.78
2022-11-30T16:42:43.542Z,101049.41
2022-11-30T16:45:47.459Z,101041.69
2022-11-30T16:48:51.323Z,101041.69
2022-11-30T16:51:54.665Z,101047.84
2022-11-30T16:54:57.724Z,101051.28
2022-11-30T16:58:14.946Z,101047.00
2022-11-30T17:01:35.657Z,101047.13
2022-11-30T17:04:38.881Z,101042.62
2022-11-30T17:07:41.948Z,101048.56
2022-11-30T17:10:44.843Z,101050.13
2022-11-30T17:13:53.614Z,101050.87
2022-11-30T17:16:56.336Z,101053.25
2022-11-30T17:19:59.213Z,101058.06
2022-11-30T17:23:01.883Z,101057.34
2022-11-30T17:26:04.607Z,101056.75
2022-11-30T17:29:10.204Z,101049.97
2022-11-30T17:32:12.976Z,101056.25
2022-11-30T17:35:15.917Z,101062.41
2022-11-30T17:38:18.878Z,101062.66
2022-11-30T17:41:22.497Z,101062.03
2022-11-30T17:44:25.772Z,101071.66
2022-11-30T17:47:28.482Z,101067.72
2022-11-30T17:50:42.586Z,101070.16
2022-11-30T17:53:51.678Z,101069.44
2022-11-30T17:56:56.040Z,101080.00
2022-11-30T17:59:59.087Z,101073.22
2022-11-30T18:03:02.107Z,101069.88
2022-11-30T18:06:04.880Z,101068.22
2022-11-30T18:09:08.126Z,101069.88
2022-11-30T18:12:11.926Z,101071.13
2022-11-30T18:15:14.915Z,101070.41
2022-11-30T18:18:17.744Z,101075.03
2022-11-30T18:21:22.505Z,101074.06
2022-11-30T18:24:25.967Z,101080.25
2022-11-30T18:27:28.917Z,101077.75
2022-11-30T18:30:32.869Z,101082.47
2022-11-30T18:33:36.263Z,101075.06
2022-11-30T18:36:39.123Z,101075.19
2022-11-30T18:39:42.019Z,101072.19
2022-11-30T18:42:47.705Z,101081.06
2022-11-30T18:45:50.323Z,101083.78
2022-11-30T18:48:54.816Z,101079.81
2022-11-30T18:51:57.750Z,101092.03
2022-11-30T18:55:01.732Z,101082.75
2022-11-30T18:58:05.694Z,101079.53
2022-11-30T19:01:20.350Z,101086.09
2022-11-30T19:04:25.723Z,101087.25
2022-11-30T19:07:29.448Z,101084.75
2022-11-30T19:10:34.489Z,101086.62
2022-11-30T19:13:37.859Z,101075.59
2022-11-30T19:16:41.635Z,101082.78
2022-11-30T19:19:44.607Z,101078.72
2022-11-30T19:22:47.824Z,101080.28
2022-11-30T19:25:51.814Z,101081.13
2022-11-30T19:28:55.802Z,101087.38
2022-11-30T19:32:02.124Z,101080.59
2022-11-30T19:35:05.450Z,101086.75
2022-11-30T19:38:10.479Z,101091.44
2022-11-30T19:41:14.946Z,101086.12
2022-11-30T19:44:17.841Z,101094.06
2022-11-30T19:47:22.437Z,101098.44
2022-11-30T19:50:26.205Z,101099.25
2022-11-30T19:53:29.684Z,101089.88
2022-11-30T19:56:38.568Z,101098.53
2022-11-30T19:59:41.517Z,101095.31
2022-11-30T20:02:44.584Z,101091.97
2022-11-30T20:05:51.962Z,101095.53
2022-11-30T20:08:56.050Z,101096.34
2022-11-30T20:12:00.167Z,101094.06
2022-11-30T20:15:03.484Z,101089.69
2022-11-30T20:18:07.722Z,101092.28
2022-11-30T20:21:22.859Z,101100.28
2022-11-30T20:24:25.958Z,101096.12
2022-11-30T20:27:34.803Z,101097.78
2022-11-30T20:30:38.332Z,101092.78
2022-11-30T20:33:42.938Z,101098.00
2022-11-30T20:36:45.698Z,101091.22
2022-11-30T20:39:48.759Z,101104.16
2022-11-30T20:42:52.923Z,101097.16
2022-11-30T20:45:56.118Z,101089.25
2022-11-30T20:49:04.495Z,101083.19
2022-11-30T20:52:07.239Z,101085.81
2022-11-30T20:55:10.056Z,101078.81
2022-11-30T20:58:13.060Z,101079.66
2022-11-30T21:01:21.255Z,101078.63
2022-11-30T21:04:26.172Z,101078.81
2022-11-30T21:07:29.301Z,101083.09
2022-11-30T21:10:32.724Z,101084.03
2022-11-30T21:13:39.051Z,101085.59
2022-11-30T21:16:42.061Z,101086.44
2022-11-30T21:19:45.088Z,101084.66
2022-11-30T21:22:47.700Z,101088.75
2022-11-30T21:25:52.183Z,101090.31
2022-11-30T21:28:59.913Z,101085.81
2022-11-30T21:32:02.731Z,101082.28
2022-11-30T21:35:05.806Z,101082.38
2022-11-30T21:38:08.504Z,101081.78
2022-11-30T21:41:12.560Z,101089.78
2022-11-30T21:44:16.328Z,101087.47
2022-11-30T21:47:22.004Z,101091.00
2022-11-30T21:50:27.331Z,101097.16
2022-11-30T21:53:30.319Z,101099.75
2022-11-30T21:56:35.441Z,101100.72
2022-11-30T21:59:38.561Z,101097.16
2022-11-30T22:02:41.270Z,101093.72
2022-11-30T22:05:43.885Z,101092.06
2022-11-30T22:08:47.047Z,101097.47
2022-11-30T22:11:52.809Z,101098.41
2022-11-30T22:14:55.558Z,101098.72
2022-11-30T22:17:58.102Z,101099.97
2022-11-30T22:21:11.884Z,101097.47
2022-11-30T22:24:14.483Z,101090.69
2022-11-30T22:27:20.785Z,101099.34
2022-11-30T22:30:23.441Z,101090.69
2022-11-30T22:33:26.072Z,101093.31
2022-11-30T22:36:32.646Z,101096.75
2022-11-30T22:39:36.746Z,101089.88
2022-11-30T22:42:39.383Z,101091.94
2022-11-30T22:45:42.079Z,101093.91
2022-11-30T22:48:45.341Z,101096.62
2022-11-30T22:51:48.097Z,101094.13
2022-11-30T22:54:50.809Z,101092.34
2022-11-30T22:57:53.765Z,101089.84
2022-11-30T23:00:56.526Z,101096.19
2022-11-30T23:04:08.656Z,101097.25
2022-11-30T23:07:11.331Z,101097.50
2022-11-30T23:10:15.127Z,101100.22
2022-11-30T23:13:17.854Z,101095.00
2022-11-30T23:16:21.389Z,101095.75
2022-11-30T23:19:24.084Z,101101.87
2022-11-30T23:22:26.928Z,101101.25
2022-11-30T23:25:29.558Z,101095.22
2022-11-30T23:28:35.201Z,101097.72
2022-11-30T23:31:39.426Z,101086.47
2022-11-30T23:34:42.134Z,101094.47
2022-11-30T23:37:44.972Z,101089.38
2022-11-30T23:40:48.047Z,101085.84
2022-11-30T23:43:50.810Z,101080.84
2022-11-30T23:46:53.481Z,101076.56
2022-11-30T23:49:56.283Z,101086.03
2022-11-30T23:52:59.079Z,101075.31
2022-11-30T23:56:03.810Z,101071.03
2022-11-30T23:59:06.612Z,101071.13
